Time;durP1;ratioP1;P1;durP2;ratioP2;P2;SDS_P1;SDS_P2;PMS_P1;PMS_P2;Temp;Humidity;BMP_temperature;BMP_pressure;BME280_temperature;BME280_humidity;BME280_pressure;Samples;Min_cycle;Max_cycle;Signal;HPM_P1;HPM_P2
2022/07/23 00:01:15;;;;;;;4.85;2.35;;;15.00;99.90;;;;;;5013444;28;20485;-79
2022/07/23 00:03:40;;;;;;;4.65;2.50;;;15.00;99.90;;;;;;4993910;28;20041;-78
2022/07/23 00:06:06;;;;;;;5.47;2.92;;;14.90;99.90;;;;;;4989998;28;20400;-78
2022/07/23 00:08:32;;;;;;;8.18;3.80;;;14.90;99.90;;;;;;4993688;28;20046;-78
2022/07/23 00:10:57;;;;;;;5.43;3.72;;;14.90;99.90;;;;;;4997984;28;20065;-78
2022/07/23 00:13:23;;;;;;;9.85;4.00;;;14.80;99.90;;;;;;5000804;28;20077;-78
2022/07/23 00:15:48;;;;;;;9.00;4.40;;;14.80;99.90;;;;;;5005755;28;20034;-78
2022/07/23 00:18:14;;;;;;;6.25;4.20;;;14.70;99.90;;;;;;5008816;28;20060;-78
2022/07/23 00:20:39;;;;;;;5.60;3.92;;;14.60;99.90;;;;;;4997547;28;20041;-78
2022/07/23 00:23:05;;;;;;;4.70;3.40;;;14.80;99.90;;;;;;5010539;28;20112;-78
2022/07/23 00:25:30;;;;;;;5.82;4.03;;;14.70;99.90;;;;;;5001309;28;20037;-78
2022/07/23 00:28:00;;;;;;;4.93;3.70;;;14.60;99.90;;;;;;4997625;28;20088;-78
2022/07/23 00:30:26;;;;;;;4.85;3.78;;;14.70;99.90;;;;;;4994095;28;20049;-78
2022/07/23 00:32:57;;;;;;;5.38;3.53;;;14.70;99.90;;;;;;4995941;28;20034;-77
2022/07/23 00:35:25;;;;;;;7.72;4.00;;;14.80;99.90;;;;;;4993423;28;20122;-78
2022/07/23 00:37:51;;;;;;;6.60;3.78;;;14.80;99.90;;;;;;4996929;28;20381;-78
2022/07/23 00:40:16;;;;;;;7.22;3.78;;;14.80;99.90;;;;;;4995726;28;20157;-77
2022/07/23 00:42:42;;;;;;;6.03;3.95;;;14.80;99.90;;;;;;5005497;28;20232;-78
2022/07/23 00:45:08;;;;;;;7.63;4.22;;;14.90;99.90;;;;;;4992810;28;20515;-78
2022/07/23 00:47:34;;;;;;;5.03;4.00;;;14.80;99.90;;;;;;5000381;28;20112;-78
2022/07/23 00:50:00;;;;;;;8.75;4.00;;;14.90;99.90;;;;;;4992993;28;20046;-78
2022/07/23 00:52:25;;;;;;;7.13;4.07;;;14.90;99.90;;;;;;5003714;28;20037;-78
2022/07/23 00:54:52;;;;;;;6.65;4.00;;;14.80;99.90;;;;;;4992082;28;20089;-78
2022/07/23 00:57:17;;;;;;;6.93;4.38;;;14.80;99.90;;;;;;4993831;28;20048;-78
2022/07/23 00:59:43;;;;;;;6.47;3.85;;;14.80;99.90;;;;;;5003724;28;20038;-78
2022/07/23 01:02:09;;;;;;;6.93;3.90;;;14.70;99.90;;;;;;5002650;28;20042;-78
2022/07/23 01:04:34;;;;;;;6.63;4.15;;;14.70;99.90;;;;;;4993123;28;20045;-78
2022/07/23 01:07:00;;;;;;;5.78;4.03;;;14.70;99.90;;;;;;5006139;28;20046;-78
2022/07/23 01:09:26;;;;;;;5.75;4.03;;;14.70;99.90;;;;;;5000917;28;20076;-79
2022/07/23 01:11:54;;;;;;;7.22;4.22;;;14.70;99.90;;;;;;4996969;28;20476;-78
2022/07/23 01:14:20;;;;;;;5.88;3.95;;;14.70;99.90;;;;;;4979793;28;20046;-79
2022/07/23 01:16:48;;;;;;;6.38;4.10;;;14.60;99.90;;;;;;5008337;28;20082;-78
2022/07/23 01:19:14;;;;;;;6.15;4.00;;;14.50;99.90;;;;;;4997130;28;20042;-79
2022/07/23 01:21:42;;;;;;;6.57;4.10;;;14.50;99.90;;;;;;5007372;28;20038;-78
2022/07/23 01:24:09;;;;;;;7.18;4.68;;;14.50;99.90;;;;;;4996862;28;20041;-79
2022/07/23 01:26:36;;;;;;;5.13;3.50;;;14.40;99.90;;;;;;5000422;28;20624;-78
2022/07/23 01:29:02;;;;;;;6.60;3.97;;;14.30;99.90;;;;;;4996616;28;20038;-78
2022/07/23 01:31:27;;;;;;;7.18;4.90;;;14.20;99.90;;;;;;4998564;28;20049;-79
2022/07/23 01:33:53;;;;;;;5.90;4.20;;;14.20;99.90;;;;;;4996696;28;20476;-78
2022/07/23 01:36:18;;;;;;;6.68;3.72;;;14.20;99.90;;;;;;4996139;28;20096;-78
2022/07/23 01:38:44;;;;;;;6.07;4.20;;;14.20;99.90;;;;;;5008184;28;20666;-78
2022/07/23 01:41:10;;;;;;;6.28;4.30;;;14.20;99.90;;;;;;4996879;28;20033;-78
2022/07/23 01:43:35;;;;;;;6.32;4.03;;;14.10;99.90;;;;;;5013931;28;20036;-78
2022/07/23 01:46:01;;;;;;;5.97;3.58;;;14.10;99.90;;;;;;4997539;28;20041;-78
2022/07/23 01:48:26;;;;;;;6.43;4.28;;;14.00;99.90;;;;;;4991120;28;20064;-78
2022/07/23 01:50:52;;;;;;;7.20;3.95;;;13.90;99.90;;;;;;4998691;28;20480;-78
2022/07/23 01:53:18;;;;;;;8.35;4.18;;;13.90;99.90;;;;;;4996621;28;20495;-78
2022/07/23 01:55:43;;;;;;;10.68;4.28;;;13.90;99.90;;;;;;4995010;28;20038;-78
2022/07/23 01:58:09;;;;;;;7.15;4.53;;;13.90;99.90;;;;;;4999166;28;20729;-78
2022/07/23 02:00:35;;;;;;;4.72;3.85;;;13.80;99.90;;;;;;5013249;28;20038;-79
2022/07/23 02:03:00;;;;;;;4.63;3.75;;;13.80;99.90;;;;;;5007289;28;20104;-79
2022/07/23 02:05:28;;;;;;;7.07;3.90;;;13.80;99.90;;;;;;4983492;28;20045;-79
2022/07/23 02:07:54;;;;;;;6.30;4.30;;;13.70;99.90;;;;;;4997465;28;20046;-78
2022/07/23 02:10:20;;;;;;;7.60;3.80;;;13.70;99.90;;;;;;4999186;28;20050;-79
2022/07/23 02:12:45;;;;;;;5.95;4.40;;;13.60;99.90;;;;;;4991755;28;20134;-78
2022/07/23 02:15:11;;;;;;;5.53;4.50;;;13.50;99.90;;;;;;4979328;28;20038;-79
2022/07/23 02:17:37;;;;;;;7.78;4.10;;;13.50;99.90;;;;;;5005603;28;20066;-79
2022/07/23 02:20:04;;;;;;;6.72;4.30;;;13.50;99.90;;;;;;4996520;28;20050;-79
2022/07/23 02:22:29;;;;;;;6.90;4.32;;;13.40;99.90;;;;;;4997622;28;20034;-79
2022/07/23 02:24:55;;;;;;;7.03;4.82;;;13.40;99.90;;;;;;4997656;28;20083;-79
2022/07/23 02:27:21;;;;;;;6.30;5.00;;;13.40;99.90;;;;;;5016896;28;20076;-80
2022/07/23 02:29:47;;;;;;;8.45;5.30;;;13.40;99.90;;;;;;5003853;28;20451;-79
2022/07/23 02:32:12;;;;;;;6.43;5.18;;;13.40;99.90;;;;;;4986262;28;20112;-79
2022/07/23 02:34:38;;;;;;;7.95;4.95;;;13.30;99.90;;;;;;4998096;28;20030;-80
2022/07/23 02:37:03;;;;;;;8.75;5.60;;;13.30;99.90;;;;;;4997812;28;20038;-80
2022/07/23 02:39:29;;;;;;;6.50;4.97;;;13.30;99.90;;;;;;4996036;28;20069;-80
2022/07/23 02:41:54;;;;;;;7.50;5.38;;;13.30;99.90;;;;;;4997265;28;20030;-79
2022/07/23 02:44:20;;;;;;;7.53;5.03;;;13.30;99.90;;;;;;5001890;28;20133;-78
2022/07/23 02:46:45;;;;;;;5.97;4.90;;;13.40;99.90;;;;;;4992625;28;20042;-78
2022/07/23 02:49:11;;;;;;;7.80;5.00;;;13.40;99.90;;;;;;4995508;28;20048;-78
2022/07/23 02:51:36;;;;;;;7.70;5.55;;;13.40;99.90;;;;;;4991214;28;20046;-78
2022/07/23 02:54:02;;;;;;;6.50;5.22;;;13.50;99.90;;;;;;5007763;28;20079;-78
2022/07/23 02:56:28;;;;;;;9.52;5.40;;;13.50;99.90;;;;;;5005472;28;20034;-78
2022/07/23 02:58:53;;;;;;;6.80;5.30;;;13.50;99.90;;;;;;5014379;28;20087;-79
2022/07/23 03:01:19;;;;;;;9.63;5.50;;;13.50;99.90;;;;;;4993263;28;20038;-79
2022/07/23 03:03:44;;;;;;;6.75;5.60;;;13.40;99.90;;;;;;4984344;28;20038;-79
2022/07/23 03:06:10;;;;;;;7.70;5.80;;;13.30;99.90;;;;;;4998323;28;20038;-80
2022/07/23 03:08:35;;;;;;;6.55;5.43;;;13.40;99.90;;;;;;5000149;28;20038;-78
2022/07/23 03:11:01;;;;;;;8.77;5.75;;;13.40;99.90;;;;;;4999016;28;20053;-79
2022/07/23 03:13:27;;;;;;;6.90;5.80;;;13.30;99.90;;;;;;5014731;28;20473;-79
2022/07/23 03:15:52;;;;;;;8.48;5.30;;;13.30;99.90;;;;;;5010763;28;20038;-79
2022/07/23 03:18:18;;;;;;;7.13;5.32;;;13.20;99.90;;;;;;5006699;28;21879;-79
2022/07/23 03:20:44;;;;;;;6.53;5.38;;;13.20;99.90;;;;;;4991570;28;20030;-79
2022/07/23 03:23:09;;;;;;;7.50;5.30;;;13.20;99.90;;;;;;4990146;28;20690;-79
2022/07/23 03:25:35;;;;;;;8.13;5.50;;;13.20;99.90;;;;;;5008872;28;20034;-79
2022/07/23 03:28:00;;;;;;;7.82;5.57;;;13.20;99.90;;;;;;4995080;28;20122;-79
2022/07/23 03:30:26;;;;;;;8.80;5.60;;;13.10;99.90;;;;;;4981685;28;20049;-79
2022/07/23 03:32:51;;;;;;;5.63;5.00;;;13.10;99.90;;;;;;4998360;28;20046;-80
2022/07/23 03:35:17;;;;;;;8.48;5.57;;;13.10;99.90;;;;;;4994988;28;20042;-79
2022/07/23 03:37:42;;;;;;;8.73;5.10;;;13.00;99.90;;;;;;4994933;28;20037;-79
2022/07/23 03:40:08;;;;;;;6.50;4.50;;;13.00;99.90;;;;;;5009348;28;20381;-79
2022/07/23 03:42:34;;;;;;;9.93;4.80;;;13.00;99.90;;;;;;4994931;28;20092;-80
2022/07/23 03:45:00;;;;;;;9.05;5.35;;;12.90;99.90;;;;;;4997673;28;20073;-79
2022/07/23 03:47:26;;;;;;;7.45;5.57;;;13.00;99.90;;;;;;5003394;28;20046;-80
2022/07/23 03:49:51;;;;;;;8.27;5.28;;;13.00;99.90;;;;;;5012518;28;20412;-80
2022/07/23 03:52:17;;;;;;;7.72;5.55;;;13.00;99.90;;;;;;5005524;28;20357;-79
2022/07/23 03:54:42;;;;;;;7.10;5.35;;;13.00;99.90;;;;;;4995669;28;20057;-80
2022/07/23 03:57:08;;;;;;;7.43;5.60;;;13.10;99.90;;;;;;5005833;28;20068;-80
2022/07/23 03:59:33;;;;;;;6.60;5.38;;;13.10;99.90;;;;;;4995927;28;20033;-79
2022/07/23 04:01:59;;;;;;;7.53;5.60;;;13.10;99.90;;;;;;4995125;28;20048;-79
2022/07/23 04:04:24;;;;;;;7.05;5.30;;;13.10;99.90;;;;;;4990819;28;20085;-80
2022/07/23 04:06:50;;;;;;;7.10;5.20;;;13.20;99.90;;;;;;4991152;28;20050;-80
2022/07/23 04:09:15;;;;;;;5.80;5.03;;;13.30;99.90;;;;;;5004883;28;20045;-79
2022/07/23 04:11:41;;;;;;;7.20;5.30;;;13.30;99.90;;;;;;5006627;28;20552;-80
2022/07/23 04:14:07;;;;;;;7.47;4.97;;;13.40;99.90;;;;;;5009463;28;20190;-80
2022/07/23 04:16:32;;;;;;;7.32;5.32;;;13.40;99.90;;;;;;5011567;28;20050;-79
2022/07/23 04:18:58;;;;;;;6.97;5.07;;;13.50;99.90;;;;;;5013298;28;20038;-79
2022/07/23 04:21:24;;;;;;;8.38;4.63;;;13.50;99.90;;;;;;4999022;28;20050;-79
2022/07/23 04:23:50;;;;;;;5.40;4.72;;;13.50;99.90;;;;;;4996936;28;20038;-80
2022/07/23 04:26:15;;;;;;;6.82;4.75;;;13.50;99.90;;;;;;4983113;28;20042;-80
2022/07/23 04:28:41;;;;;;;8.20;4.57;;;13.60;99.90;;;;;;4992992;28;20053;-80
2022/07/23 04:31:07;;;;;;;5.63;4.40;;;13.60;99.90;;;;;;4993556;28;20042;-80
2022/07/23 04:33:33;;;;;;;8.73;4.43;;;13.70;99.90;;;;;;4991281;28;20034;-80
2022/07/23 04:35:58;;;;;;;7.20;5.18;;;13.70;99.90;;;;;;4988328;28;20042;-79
2022/07/23 04:38:24;;;;;;;7.13;4.18;;;13.70;99.90;;;;;;4993475;28;20093;-80
2022/07/23 04:40:50;;;;;;;8.77;4.45;;;13.70;99.90;;;;;;4996300;28;20193;-80
2022/07/23 04:43:15;;;;;;;8.45;4.30;;;13.70;99.90;;;;;;4999447;28;20034;-79
2022/07/23 04:45:41;;;;;;;6.93;4.55;;;13.70;99.90;;;;;;4989666;28;20037;-80
2022/07/23 04:48:06;;;;;;;5.30;4.35;;;13.70;99.90;;;;;;5014722;28;20064;-79
2022/07/23 04:50:32;;;;;;;6.40;3.60;;;13.80;99.90;;;;;;5016931;28;20042;-80
2022/07/23 04:52:57;;;;;;;6.63;4.03;;;13.80;99.90;;;;;;4996534;28;20050;-80
2022/07/23 04:55:23;;;;;;;6.28;4.07;;;13.90;99.90;;;;;;5004649;28;20045;-80
2022/07/23 04:57:49;;;;;;;4.57;3.75;;;13.90;99.90;;;;;;4998597;28;20129;-80
2022/07/23 05:00:15;;;;;;;5.65;3.83;;;14.00;99.90;;;;;;4983578;28;20117;-79
2022/07/23 05:02:40;;;;;;;6.82;3.90;;;14.10;99.90;;;;;;4997825;28;20131;-79
2022/07/23 05:05:06;;;;;;;7.35;3.97;;;14.10;99.90;;;;;;5000276;28;20037;-80
2022/07/23 05:07:32;;;;;;;7.28;4.63;;;14.20;99.90;;;;;;5011760;28;20583;-80
2022/07/23 05:09:57;;;;;;;4.85;4.00;;;14.30;99.90;;;;;;4996438;28;20041;-79
2022/07/23 05:12:23;;;;;;;6.25;3.85;;;14.40;99.90;;;;;;4999356;28;20133;-79
2022/07/23 05:14:49;;;;;;;5.45;4.40;;;14.40;99.90;;;;;;4986144;28;20038;-79
2022/07/23 05:17:14;;;;;;;7.15;3.70;;;14.40;99.90;;;;;;4989607;28;20088;-80
2022/07/23 05:19:40;;;;;;;5.63;4.20;;;14.30;99.90;;;;;;4996359;28;20037;-79
2022/07/23 05:22:05;;;;;;;6.57;3.90;;;14.30;99.90;;;;;;5007434;28;20030;-79
2022/07/23 05:24:31;;;;;;;7.25;3.80;;;14.30;99.90;;;;;;5005486;28;20489;-79
2022/07/23 05:26:56;;;;;;;6.28;3.80;;;14.30;99.90;;;;;;5002753;28;20042;-78
2022/07/23 05:29:22;;;;;;;5.30;3.55;;;14.30;99.90;;;;;;5008745;28;20408;-79
2022/07/23 05:31:48;;;;;;;7.68;4.00;;;14.20;99.90;;;;;;4997222;28;20069;-79
2022/07/23 05:34:13;;;;;;;6.95;3.83;;;14.20;99.90;;;;;;5007414;28;20042;-80
2022/07/23 05:36:39;;;;;;;6.18;3.60;;;14.20;99.90;;;;;;5001971;28;20039;-79
2022/07/23 05:39:04;;;;;;;6.60;3.60;;;14.20;99.90;;;;;;4994798;28;20081;-80
2022/07/23 05:41:30;;;;;;;7.68;3.50;;;14.20;99.90;;;;;;5010463;28;20038;-79
2022/07/23 05:43:56;;;;;;;5.50;3.17;;;14.20;99.90;;;;;;4984816;28;20096;-79
2022/07/23 05:46:22;;;;;;;6.22;3.20;;;14.30;99.90;;;;;;5015030;28;20403;-80
2022/07/23 05:48:49;;;;;;;4.97;3.47;;;14.50;99.90;;;;;;5000480;28;20042;-79
2022/07/23 05:51:22;;;;;;;6.75;3.33;;;14.70;99.90;;;;;;4980190;28;20042;-80
2022/07/23 05:53:49;;;;;;;8.23;3.40;;;14.80;99.90;;;;;;4994562;28;20122;-80
2022/07/23 05:56:15;;;;;;;4.25;2.70;;;14.90;99.90;;;;;;5011576;28;20045;-80
2022/07/23 05:58:40;;;;;;;4.93;2.63;;;15.00;99.90;;;;;;5012359;28;20038;-80
2022/07/23 06:01:06;;;;;;;5.50;2.70;;;15.20;99.90;;;;;;5006600;28;20147;-81
2022/07/23 06:03:31;;;;;;;5.93;2.60;;;15.40;99.90;;;;;;4997454;28;20041;-80
2022/07/23 06:05:57;;;;;;;3.95;2.28;;;15.50;99.90;;;;;;5003280;28;20038;-80
2022/07/23 06:08:22;;;;;;;4.75;2.30;;;15.50;99.90;;;;;;5010477;28;20054;-80
2022/07/23 06:10:48;;;;;;;3.17;2.30;;;15.70;99.90;;;;;;5022866;28;20069;-80
2022/07/23 06:13:14;;;;;;;3.05;1.80;;;15.60;99.90;;;;;;4996259;28;20030;-80
2022/07/23 06:15:39;;;;;;;4.90;2.00;;;15.60;99.90;;;;;;5007141;28;20126;-80
2022/07/23 06:18:05;;;;;;;3.03;1.70;;;15.60;99.90;;;;;;4998334;28;20042;-80
2022/07/23 06:20:30;;;;;;;4.28;1.85;;;15.60;99.90;;;;;;5007009;28;20046;-80
2022/07/23 06:22:56;;;;;;;5.57;2.05;;;15.60;99.90;;;;;;5010289;28;20412;-80
2022/07/23 06:25:21;;;;;;;2.85;1.88;;;15.60;99.90;;;;;;4988255;28;20177;-81
2022/07/23 06:27:47;;;;;;;3.63;1.92;;;15.80;99.90;;;;;;4995954;28;20069;-80
2022/07/23 06:30:15;;;;;;;4.10;1.98;;;15.90;99.90;;;;;;5012036;28;20413;-80
2022/07/23 06:32:41;;;;;;;5.47;2.03;;;15.90;99.90;;;;;;4993401;28;20042;-80
2022/07/23 06:35:07;;;;;;;4.30;2.08;;;15.90;99.90;;;;;;5001277;28;20088;-80
2022/07/23 06:37:33;;;;;;;4.22;1.77;;;16.00;99.90;;;;;;5004069;28;20062;-80
2022/07/23 06:39:58;;;;;;;5.53;2.15;;;16.00;99.90;;;;;;5011633;28;20048;-80
2022/07/23 06:42:24;;;;;;;5.53;1.95;;;16.10;99.90;;;;;;5003244;28;20034;-80
2022/07/23 06:44:49;;;;;;;4.10;1.90;;;16.20;99.90;;;;;;5002006;28;20501;-80
2022/07/23 06:47:15;;;;;;;2.83;1.60;;;16.30;99.90;;;;;;5014136;28;20042;-81
2022/07/23 06:49:41;;;;;;;4.38;2.03;;;16.50;99.90;;;;;;5005409;28;20042;-80
2022/07/23 06:52:07;;;;;;;4.95;1.60;;;16.70;99.90;;;;;;5011671;28;20050;-79
2022/07/23 06:54:32;;;;;;;1.77;1.38;;;16.90;99.90;;;;;;5006795;28;20073;-80
2022/07/23 06:56:58;;;;;;;3.63;1.13;;;17.00;99.90;;;;;;4996338;28;20046;-80
2022/07/23 06:59:24;;;;;;;3.05;1.10;;;17.10;99.90;;;;;;4995371;28;20117;-79
2022/07/23 07:01:49;;;;;;;3.67;1.00;;;17.30;99.90;;;;;;5014206;28;20049;-80
2022/07/23 07:04:15;;;;;;;2.00;0.90;;;17.10;99.90;;;;;;5012412;28;20084;-80
2022/07/23 07:06:40;;;;;;;1.30;0.80;;;17.30;99.90;;;;;;5027682;28;20049;-80
2022/07/23 07:09:06;;;;;;;3.42;1.05;;;17.50;99.90;;;;;;5030969;28;20054;-80
2022/07/23 07:11:32;;;;;;;4.10;0.82;;;17.80;99.90;;;;;;5030739;28;20773;-81
2022/07/23 07:13:57;;;;;;;4.35;0.80;;;18.10;99.90;;;;;;5011689;28;20042;-80
2022/07/23 07:16:23;;;;;;;0.90;0.50;;;18.30;99.90;;;;;;4994973;28;20046;-80
2022/07/23 07:18:48;;;;;;;2.40;0.70;;;18.10;99.90;;;;;;4976113;28;20042;-79
2022/07/23 07:21:14;;;;;;;1.35;0.60;;;18.00;99.90;;;;;;4994972;28;20053;-79
2022/07/23 07:23:40;;;;;;;2.25;0.70;;;17.60;99.90;;;;;;4994671;28;20136;-79
2022/07/23 07:26:05;;;;;;;2.53;0.60;;;17.40;99.90;;;;;;4994777;28;20050;-80
2022/07/23 07:28:31;;;;;;;2.03;0.68;;;17.30;99.90;;;;;;4995301;28;20100;-80
2022/07/23 07:30:57;;;;;;;2.58;0.70;;;17.20;99.90;;;;;;4995780;28;20471;-80
2022/07/23 07:33:22;;;;;;;2.35;0.60;;;17.40;99.90;;;;;;4994641;28;20586;-80
2022/07/23 07:35:48;;;;;;;2.83;0.70;;;17.60;99.90;;;;;;4994968;28;20074;-80
2022/07/23 07:38:13;;;;;;;1.27;0.60;;;17.90;99.90;;;;;;4980496;28;20104;-83
2022/07/23 07:40:39;;;;;;;1.65;0.65;;;18.10;99.90;;;;;;5010425;28;20096;-79
2022/07/23 07:43:05;;;;;;;2.47;0.50;;;18.10;99.90;;;;;;4997192;28;20041;-79
2022/07/23 07:45:31;;;;;;;2.00;0.60;;;18.10;99.90;;;;;;4995147;28;20038;-79
2022/07/23 07:47:57;;;;;;;2.45;0.55;;;18.10;99.90;;;;;;4986917;28;20048;-79
2022/07/23 07:50:23;;;;;;;2.33;0.70;;;18.30;99.90;;;;;;5011220;28;20204;-79
2022/07/23 07:52:49;;;;;;;2.13;0.60;;;18.40;99.90;;;;;;4994798;28;20085;-82
2022/07/23 07:55:15;;;;;;;1.52;0.68;;;18.50;99.90;;;;;;4998112;28;20389;-79
2022/07/23 07:57:40;;;;;;;1.25;0.50;;;18.50;99.90;;;;;;5015750;28;20034;-79
2022/07/23 08:00:07;;;;;;;1.70;0.57;;;18.40;99.90;;;;;;5016144;28;20030;-79
2022/07/23 08:02:53;;;;;;;1.52;0.60;;;18.40;99.90;;;;;;4998062;28;20053;-78
2022/07/23 08:05:23;;;;;;;2.45;0.70;;;18.50;99.90;;;;;;4993189;28;20392;-80
2022/07/23 08:07:49;;;;;;;1.25;0.60;;;18.80;99.90;;;;;;5008229;28;20500;-79
2022/07/23 08:10:14;;;;;;;2.95;0.73;;;19.10;99.90;;;;;;5013148;28;20145;-79
2022/07/23 08:12:44;;;;;;;1.52;0.70;;;19.30;99.90;;;;;;5008022;28;20064;-79
2022/07/23 08:15:10;;;;;;;2.25;0.70;;;18.90;99.90;;;;;;5006236;28;20078;-79
2022/07/23 08:17:36;;;;;;;2.40;0.60;;;18.70;99.90;;;;;;5013201;28;20077;-79
2022/07/23 08:20:03;;;;;;;3.15;0.82;;;18.40;99.90;;;;;;5013316;28;20071;-79
2022/07/23 08:22:42;;;;;;;1.13;0.50;;;18.20;99.90;;;;;;4997107;28;20038;-80
2022/07/23 08:25:08;;;;;;;1.83;0.50;;;18.40;99.90;;;;;;5002150;28;20033;-79
2022/07/23 08:27:34;;;;;;;1.05;0.50;;;18.50;99.90;;;;;;5012850;28;20484;-79
2022/07/23 08:29:59;;;;;;;2.03;0.60;;;18.60;99.90;;;;;;5005312;28;20042;-79
2022/07/23 08:32:25;;;;;;;1.38;0.60;;;18.70;99.90;;;;;;5012206;28;20041;-79
2022/07/23 08:34:51;;;;;;;4.65;0.90;;;18.80;99.90;;;;;;5011849;28;20090;-80
2022/07/23 08:37:16;;;;;;;2.45;0.75;;;18.90;99.90;;;;;;5011915;28;20496;-79
2022/07/23 08:39:42;;;;;;;1.98;0.70;;;18.80;99.90;;;;;;5002787;28;20504;-78
2022/07/23 08:42:07;;;;;;;1.58;0.60;;;18.90;99.90;;;;;;4995127;28;20440;-78
2022/07/23 08:44:35;;;;;;;1.92;0.70;;;19.00;99.90;;;;;;5010942;28;20496;-79
2022/07/23 08:47:01;;;;;;;3.20;0.65;;;19.10;99.90;;;;;;4990527;28;20472;-78
2022/07/23 08:49:29;;;;;;;4.38;0.93;;;19.50;99.90;;;;;;5003484;28;20085;-78
2022/07/23 08:51:54;;;;;;;3.58;0.80;;;19.60;99.90;;;;;;5008536;28;20053;-78
2022/07/23 08:54:21;;;;;;;2.60;0.77;;;19.60;99.90;;;;;;5007025;28;20617;-78
2022/07/23 08:56:48;;;;;;;3.33;0.90;;;19.70;99.90;;;;;;5008636;28;20173;-78
2022/07/23 08:59:14;;;;;;;1.58;0.70;;;19.70;99.90;;;;;;5009138;28;20038;-78
2022/07/23 09:01:40;;;;;;;2.08;0.75;;;19.60;99.90;;;;;;5009624;28;20091;-78
2022/07/23 09:04:05;;;;;;;4.03;0.70;;;19.40;99.90;;;;;;4992463;28;20484;-78
2022/07/23 09:06:31;;;;;;;4.22;0.75;;;19.20;99.90;;;;;;5021356;28;20045;-79
2022/07/23 09:08:57;;;;;;;2.53;0.80;;;19.30;99.90;;;;;;5025482;28;20046;-77
2022/07/23 09:11:22;;;;;;;2.05;0.68;;;19.10;99.90;;;;;;5010335;28;20416;-77
2022/07/23 09:13:52;;;;;;;1.42;0.70;;;18.90;99.90;;;;;;4990241;28;20053;-78
2022/07/23 09:16:19;;;;;;;1.23;0.63;;;18.90;99.90;;;;;;4990114;28;20522;-78
2022/07/23 09:18:53;;;;;;;3.00;0.70;;;18.70;99.90;;;;;;4990304;28;20138;-78
2022/07/23 09:21:18;;;;;;;2.65;0.75;;;18.90;99.90;;;;;;5007029;28;20056;-78
2022/07/23 09:23:45;;;;;;;3.63;0.80;;;18.90;99.90;;;;;;4990281;28;20125;-78
2022/07/23 09:26:41;;;;;;;4.78;1.10;;;18.90;99.90;;;;;;4990510;28;20046;-77
2022/07/23 09:29:18;;;;;;;3.08;0.80;;;19.20;99.90;;;;;;4996420;28;20088;-77
2022/07/23 09:31:50;;;;;;;2.60;0.75;;;19.20;99.90;;;;;;5012431;28;20069;-78
2022/07/23 09:34:28;;;;;;;4.80;0.90;;;19.40;99.90;;;;;;5011964;28;20049;-77
2022/07/23 09:37:08;;;;;;;3.80;0.90;;;19.50;99.90;;;;;;5013201;28;20050;-77
2022/07/23 09:39:34;;;;;;;1.30;0.80;;;19.50;99.90;;;;;;5013583;28;20048;-77
2022/07/23 09:42:21;;;;;;;5.65;1.13;;;19.40;99.90;;;;;;5008991;28;20044;-78
2022/07/23 09:44:48;;;;;;;6.65;1.13;;;19.30;99.90;;;;;;4993174;28;20463;-77
2022/07/23 09:47:14;;;;;;;1.30;0.70;;;19.30;99.90;;;;;;4993045;28;20046;-77
2022/07/23 09:49:40;;;;;;;1.52;0.80;;;19.30;99.90;;;;;;5008708;28;20057;-77
2022/07/23 09:52:07;;;;;;;2.03;0.77;;;19.50;99.90;;;;;;5003156;28;20065;-77
2022/07/23 09:54:35;;;;;;;4.20;0.70;;;19.40;99.90;;;;;;4975400;28;20202;-77
2022/07/23 09:57:08;;;;;;;1.63;0.77;;;19.40;99.90;;;;;;4991288;28;20161;-77
2022/07/23 09:59:37;;;;;;;2.95;0.80;;;19.50;99.90;;;;;;4990929;28;20246;-77
2022/07/23 10:02:05;;;;;;;3.95;0.80;;;19.70;99.90;;;;;;5009055;28;20030;-78
2022/07/23 10:04:31;;;;;;;2.92;0.70;;;19.80;99.90;;;;;;5008967;28;20477;-77
2022/07/23 10:07:00;;;;;;;2.10;0.60;;;19.70;99.90;;;;;;4998447;28;20041;-77
2022/07/23 10:09:30;;;;;;;1.63;0.73;;;19.80;99.90;;;;;;5011806;28;20033;-77
2022/07/23 10:12:05;;;;;;;3.38;0.90;;;19.90;99.90;;;;;;5012104;28;20046;-77
2022/07/23 10:14:33;;;;;;;5.70;0.90;;;20.00;99.90;;;;;;5011873;28;20042;-77
2022/07/23 10:17:01;;;;;;;1.15;0.70;;;20.00;99.90;;;;;;5012423;28;20050;-77
2022/07/23 10:19:27;;;;;;;4.57;0.93;;;19.90;99.90;;;;;;5012067;28;20076;-78
2022/07/23 10:21:58;;;;;;;2.05;0.70;;;19.60;99.90;;;;;;4998614;28;20496;-77
2022/07/23 10:24:45;;;;;;;3.40;0.90;;;19.50;99.90;;;;;;5008804;28;20052;-76
2022/07/23 10:27:10;;;;;;;2.38;0.77;;;19.30;99.90;;;;;;4991420;28;20531;-77
2022/07/23 10:29:58;;;;;;;3.40;0.80;;;19.20;99.90;;;;;;4976920;28;20042;-77
2022/07/23 10:32:48;;;;;;;3.38;0.90;;;19.10;99.90;;;;;;4977554;28;20039;-77
2022/07/23 10:35:55;;;;;;;3.45;0.75;;;19.20;99.90;;;;;;4992177;28;20412;-78
2022/07/23 10:38:30;;;;;;;3.03;0.77;;;19.40;99.90;;;;;;4980741;28;20058;-78
2022/07/23 10:41:01;;;;;;;2.20;0.80;;;19.50;99.90;;;;;;4992847;28;20047;-78
2022/07/23 10:43:28;;;;;;;3.38;0.98;;;19.70;99.90;;;;;;5009038;28;20405;-77
2022/07/23 10:45:54;;;;;;;2.13;0.80;;;19.70;99.90;;;;;;5008098;28;20054;-78
2022/07/23 10:48:26;;;;;;;4.07;0.88;;;19.70;99.90;;;;;;4989881;28;20121;-77
2022/07/23 10:51:13;;;;;;;1.30;0.80;;;19.60;99.90;;;;;;5011945;28;20125;-78
2022/07/23 10:53:51;;;;;;;2.33;0.93;;;19.40;99.90;;;;;;5010195;28;20042;-77
2022/07/23 10:56:35;;;;;;;1.80;0.90;;;19.40;99.90;;;;;;5010863;28;20069;-78
2022/07/23 10:59:04;;;;;;;2.42;0.90;;;19.60;99.90;;;;;;5012242;28;20038;-78
2022/07/23 11:01:38;;;;;;;1.63;0.90;;;19.80;99.90;;;;;;5013116;28;20407;-78
2022/07/23 11:04:07;;;;;;;2.38;1.00;;;19.70;99.90;;;;;;5003910;28;20623;-78
2022/07/23 11:06:50;;;;;;;3.08;1.00;;;19.70;99.90;;;;;;5008402;28;20058;-78
2022/07/23 11:09:46;;;;;;;5.15;1.20;;;19.60;99.90;;;;;;4999205;28;20093;-78
2022/07/23 11:12:20;;;;;;;2.55;1.10;;;19.40;99.90;;;;;;5008976;28;20412;-78
2022/07/23 11:15:03;;;;;;;2.25;1.00;;;19.30;99.90;;;;;;4991747;28;20053;-78
2022/07/23 11:17:30;;;;;;;2.28;0.90;;;19.20;99.90;;;;;;4992074;28;20038;-78
2022/07/23 11:20:17;;;;;;;1.92;0.90;;;19.20;99.90;;;;;;5007569;28;20038;-78
2022/07/23 11:22:43;;;;;;;2.45;1.10;;;19.40;99.90;;;;;;4993488;28;20034;-74
2022/07/23 11:25:13;;;;;;;3.40;0.95;;;19.50;99.90;;;;;;4994309;28;20112;-78
2022/07/23 11:27:44;;;;;;;5.63;1.10;;;19.70;99.90;;;;;;4996281;28;20443;-78
2022/07/23 11:30:30;;;;;;;5.00;1.10;;;19.90;99.90;;;;;;4992661;28;20493;-78
2022/07/23 11:33:08;;;;;;;4.05;1.10;;;20.10;99.90;;;;;;5009891;28;20034;-78
2022/07/23 11:35:40;;;;;;;3.78;1.17;;;20.20;99.90;;;;;;5010233;28;20045;-78
2022/07/23 11:38:14;;;;;;;4.43;1.40;;;20.20;99.90;;;;;;5003218;28;20034;-79
2022/07/23 11:40:43;;;;;;;1.58;0.90;;;20.10;99.90;;;;;;5022570;28;20098;-78
2022/07/23 11:43:10;;;;;;;2.17;1.02;;;20.30;99.90;;;;;;5003838;28;20045;-80
2022/07/23 11:45:37;;;;;;;6.45;1.35;;;20.40;99.90;;;;;;5000082;28;20114;-77
2022/07/23 11:48:05;;;;;;;3.00;1.00;;;20.20;99.90;;;;;;4997293;28;20045;-77
2022/07/23 11:50:32;;;;;;;1.67;0.95;;;20.50;99.90;;;;;;4991260;28;20042;-77
2022/07/23 11:52:57;;;;;;;6.55;1.52;;;20.50;99.90;;;;;;4993151;28;20042;-77
2022/07/23 11:55:23;;;;;;;3.88;1.40;;;20.70;99.90;;;;;;5002861;28;20085;-77
2022/07/23 11:57:51;;;;;;;3.35;1.10;;;20.70;99.90;;;;;;4990422;28;20400;-77
2022/07/23 12:00:19;;;;;;;6.78;1.30;;;21.30;99.90;;;;;;4994041;28;20030;-77
2022/07/23 12:02:51;;;;;;;4.60;1.10;;;21.80;99.90;;;;;;4994196;28;20061;-76
2022/07/23 12:05:24;;;;;;;3.95;1.20;;;22.10;99.90;;;;;;4993446;28;20057;-78
2022/07/23 12:07:52;;;;;;;1.75;1.17;;;22.10;99.90;;;;;;4994894;28;20125;-78
2022/07/23 12:10:30;;;;;;;3.30;1.08;;;21.80;99.90;;;;;;4995840;28;20038;-77
2022/07/23 12:12:58;;;;;;;2.75;1.08;;;21.60;99.90;;;;;;4994514;28;20099;-76
2022/07/23 12:15:38;;;;;;;2.58;1.20;;;21.30;99.90;;;;;;4996492;28;20132;-76
2022/07/23 12:18:05;;;;;;;2.45;1.20;;;21.40;99.90;;;;;;5004329;28;20041;-77
2022/07/23 12:20:36;;;;;;;2.97;1.25;;;22.00;99.90;;;;;;4995447;28;20452;-77
2022/07/23 12:23:05;;;;;;;2.58;1.05;;;22.30;99.90;;;;;;4987014;28;20386;-76
2022/07/23 12:25:39;;;;;;;2.45;1.02;;;22.70;99.90;;;;;;5002249;28;20097;-77
2022/07/23 12:28:15;;;;;;;2.17;1.20;;;23.20;99.90;;;;;;4998569;28;20034;-78
2022/07/23 12:30:44;;;;;;;1.83;1.17;;;23.00;99.90;;;;;;4986436;28;20083;-78
2022/07/23 12:33:12;;;;;;;4.80;1.40;;;23.40;99.90;;;;;;5005163;28;20081;-76
2022/07/23 12:35:44;;;;;;;2.30;1.30;;;23.20;99.90;;;;;;4997730;28;20128;-77
2022/07/23 12:38:15;;;;;;;2.30;1.15;;;22.90;99.90;;;;;;4981023;28;20038;-76
2022/07/23 12:40:59;;;;;;;3.80;1.20;;;23.10;99.90;;;;;;5006455;28;20034;-77
2022/07/23 12:43:27;;;;;;;6.90;1.30;;;23.40;99.90;;;;;;5006508;28;20150;-76
2022/07/23 12:46:11;;;;;;;2.58;0.98;;;23.50;99.90;;;;;;4996745;28;20034;-78
2022/07/23 12:48:38;;;;;;;2.58;1.27;;;23.40;99.90;;;;;;4992341;28;20031;-76
2022/07/23 12:51:17;;;;;;;2.20;1.00;;;22.90;99.90;;;;;;4996142;28;20101;-77